createdAt,value
2022-12-01T00:00:18.437Z,101815.27
2022-12-01T00:03:14.652Z,101816.84
2022-12-01T00:05:47.266Z,101816.29
2022-12-01T00:08:19.803Z,101815.65
2022-12-01T00:10:52.201Z,101815.20
2022-12-01T00:13:24.873Z,101812.61
2022-12-01T00:15:57.385Z,101806.02
2022-12-01T00:18:29.920Z,101802.89
2022-12-01T00:21:02.321Z,101797.73
2022-12-01T00:23:34.923Z,101797.55
2022-12-01T00:26:08.518Z,101795.77
2022-12-01T00:28:41.097Z,101793.44
2022-12-01T00:31:14.359Z,101787.78
2022-12-01T00:33:47.144Z,101784.38
2022-12-01T00:36:19.680Z,101778.02
2022-12-01T00:38:54.789Z,101776.48
2022-12-01T00:41:28.235Z,101775.58
2022-12-01T00:44:00.668Z,101776.49
2022-12-01T00:46:33.432Z,101777.69
2022-12-01T00:49:06.616Z,101781.63
2022-12-01T00:51:39.097Z,101784.27
2022-12-01T00:54:11.680Z,101786.90
2022-12-01T00:56:44.246Z,101789.64
2022-12-01T00:59:16.882Z,101790.94
2022-12-01T01:01:47.908Z,101786.23
2022-12-01T01:04:20.608Z,101795.16
2022-12-01T01:06:53.078Z,101793.98
2022-12-01T01:09:26.132Z,101788.70
2022-12-01T01:11:58.613Z,101785.83
2022-12-01T01:14:31.144Z,101776.58
2022-12-01T01:17:03.685Z,101774.38
2022-12-01T01:19:36.189Z,101778.02
2022-12-01T01:22:08.673Z,101775.45
2022-12-01T01:24:43.650Z,101769.04
2022-12-01T01:27:16.242Z,101765.07
2022-12-01T01:29:48.915Z,101762.98
2022-12-01T01:32:21.614Z,101761.67
2022-12-01T01:34:54.149Z,101760.86
2022-12-01T01:37:26.610Z,101752.45
2022-12-01T01:39:59.124Z,101752.09
2022-12-01T01:42:31.549Z,101749.88
2022-12-01T01:45:04.194Z,101747.64
2022-12-01T01:47:39.397Z,101749.14
2022-12-01T01:50:14.503Z,101752.21
2022-12-01T01:52:50.031Z,101752.15
2022-12-01T01:55:22.665Z,101756.59
2022-12-01T01:57:55.200Z,101754.91
2022-12-01T02:00:28.024Z,101750.86
2022-12-01T02:03:01.143Z,101747.59
2022-12-01T02:05:36.553Z,101747.77
2022-12-01T02:08:12.545Z,101748.25
2022-12-01T02:11:06.661Z,101744.91
2022-12-01T02:13:44.474Z,101742.02
2022-12-01T02:16:19.187Z,101739.14
2022-12-01T02:18:57.423Z,101739.16
2022-12-01T02:21:41.349Z,101738.81
2022-12-01T02:24:47.117Z,101733.85
2022-12-01T02:27:27.271Z,101726.63
2022-12-01T02:30:17.206Z,101725.33
2022-12-01T02:33:01.486Z,101720.79
2022-12-01T02:35:37.523Z,101724.36
2022-12-01T02:38:16.298Z,101721.40
2022-12-01T02:40:52.794Z,101721.93
2022-12-01T02:43:30.922Z,101719.79
2022-12-01T02:46:07.177Z,101720.83
2022-12-01T02:48:43.155Z,101721.52
2022-12-01T02:51:17.969Z,101719.45
2022-12-01T02:53:50.616Z,101713.30
2022-12-01T02:56:25.152Z,101711.95
2022-12-01T02:58:57.926Z,101716.44
2022-12-01T03:01:42.805Z,101722.00
2022-12-01T03:04:40.539Z,101724.62
2022-12-01T03:07:20.892Z,101722.79
2022-12-01T03:10:01.192Z,101728.73
2022-12-01T03:12:39.149Z,101727.90
2022-12-01T03:15:16.554Z,101727.34
2022-12-01T03:17:54.685Z,101729.54
2022-12-01T03:20:32.284Z,101731.73
2022-12-01T03:23:08.766Z,101736.48
2022-12-01T03:25:43.509Z,101740.05
2022-12-01T03:28:22.649Z,101732.20
2022-12-01T03:30:58.884Z,101729.14
2022-12-01T03:33:35.551Z,101728.88
2022-12-01T03:36:12.008Z,101724.67
2022-12-01T03:38:46.859Z,101720.96
2022-12-01T03:41:21.370Z,101724.60
2022-12-01T03:44:02.196Z,101726.84
2022-12-01T03:46:41.338Z,101719.52
2022-12-01T03:49:13.996Z,101714.63
2022-12-01T03:51:55.744Z,101718.09
2022-12-01T03:54:32.670Z,101716.95
2022-12-01T03:57:08.307Z,101714.61
2022-12-01T03:59:41.565Z,101709.77
2022-12-01T04:02:14.753Z,101709.34
2022-12-01T04:04:47.168Z,101709.00
2022-12-01T04:07:19.782Z,101707.75
2022-12-01T04:09:52.429Z,101709.38
2022-12-01T04:12:31.124Z,101711.20
2022-12-01T04:15:06.496Z,101712.75
2022-12-01T04:17:39.257Z,101707.71
2022-12-01T04:20:14.397Z,101704.88
2022-12-01T04:22:47.128Z,101705.45
2022-12-01T04:25:18.039Z,101701.88
2022-12-01T04:27:50.539Z,101699.63
2022-12-01T04:30:23.426Z,101701.00
2022-12-01T04:32:56.041Z,101704.68
2022-12-01T04:35:28.621Z,101703.59
2022-12-01T04:38:02.212Z,101708.63
2022-12-01T04:40:34.813Z,101709.27
2022-12-01T04:43:07.659Z,101710.94
2022-12-01T04:45:38.564Z,101716.55
2022-12-01T04:48:11.195Z,101721.04
2022-12-01T04:50:44.969Z,101715.46
2022-12-01T04:53:17.433Z,101714.76
2022-12-01T04:55:49.922Z,101709.38
2022-12-01T04:58:22.502Z,101712.48
2022-12-01T05:00:55.026Z,101713.61
2022-12-01T05:03:27.558Z,101718.34
2022-12-01T05:06:06.065Z,101717.70
2022-12-01T05:08:38.642Z,101723.67
2022-12-01T05:11:12.429Z,101725.73
2022-12-01T05:13:47.325Z,101723.52
2022-12-01T05:16:21.685Z,101725.68
2022-12-01T05:19:16.583Z,101722.14
2022-12-01T05:21:50.565Z,101726.80
2022-12-01T05:24:24.789Z,101723.98
2022-12-01T05:26:57.386Z,101729.82
2022-12-01T05:29:30.013Z,101730.84
2022-12-01T05:32:03.199Z,101727.39
2022-12-01T05:34:36.035Z,101729.80
2022-12-01T05:37:09.489Z,101732.55
2022-12-01T05:39:42.091Z,101730.86
2022-12-01T05:42:13.090Z,101731.16
2022-12-01T05:44:45.624Z,101734.69
2022-12-01T05:47:18.139Z,101733.34
2022-12-01T05:49:51.079Z,101737.42
2022-12-01T05:52:23.851Z,101741.54
2022-12-01T05:54:56.523Z,101738.64
2022-12-01T05:57:29.021Z,101739.52
2022-12-01T06:00:01.934Z,101740.76
2022-12-01T06:02:34.586Z,101741.36
2022-12-01T06:05:05.949Z,101741.99
2022-12-01T06:07:40.684Z,101742.41
2022-12-01T06:10:14.443Z,101742.86
2022-12-01T06:12:47.075Z,101744.50
2022-12-01T06:15:19.752Z,101749.33
2022-12-01T06:17:52.414Z,101746.16
2022-12-01T06:20:25.139Z,101746.71
2022-12-01T06:22:59.662Z,101748.59
2022-12-01T06:25:32.343Z,101746.18
2022-12-01T06:28:03.473Z,101751.50
2022-12-01T06:30:36.164Z,101751.80
2022-12-01T06:33:08.875Z,101754.70
2022-12-01T06:35:41.548Z,101750.23
2022-12-01T06:38:14.019Z,101749.73
2022-12-01T06:40:47.474Z,101753.38
2022-12-01T06:43:20.373Z,101752.98
2022-12-01T06:45:57.822Z,101750.27
2022-12-01T06:48:34.549Z,101750.59
2022-12-01T06:51:07.256Z,101748.48
2022-12-01T06:53:39.739Z,101749.80
2022-12-01T06:56:12.364Z,101747.25
2022-12-01T06:58:45.556Z,101744.19
2022-12-01T07:01:19.276Z,101743.27
2022-12-01T07:03:52.369Z,101743.66
2022-12-01T07:06:25.053Z,101741.95
2022-12-01T07:08:57.834Z,101739.27
2022-12-01T07:11:32.484Z,101743.05
2022-12-01T07:14:05.057Z,101744.01
2022-12-01T07:16:37.662Z,101748.08
2022-12-01T07:19:10.479Z,101747.81
2022-12-01T07:21:41.372Z,101746.48
2022-12-01T07:24:14.382Z,101749.45
2022-12-01T07:26:48.177Z,101746.96
2022-12-01T07:29:20.976Z,101749.65
2022-12-01T07:31:51.948Z,101747.66
2022-12-01T07:34:24.553Z,101753.21
2022-12-01T07:36:57.153Z,101756.81
2022-12-01T07:39:29.820Z,101756.18
2022-12-01T07:42:02.537Z,101759.27
2022-12-01T07:44:35.386Z,101762.59
2022-12-01T07:47:08.282Z,101762.01
2022-12-01T07:49:41.621Z,101760.58
2022-12-01T07:52:14.312Z,101760.73
2022-12-01T07:54:45.205Z,101759.63
2022-12-01T07:57:19.619Z,101758.70
2022-12-01T07:59:53.131Z,101764.14
2022-12-01T08:02:25.940Z,101764.42
2022-12-01T08:04:56.946Z,101761.38
2022-12-01T08:07:30.083Z,101763.41
2022-12-01T08:10:02.881Z,101763.41
2022-12-01T08:12:35.524Z,101762.59
2022-12-01T08:15:11.275Z,101760.38
2022-12-01T08:17:44.375Z,101762.20
2022-12-01T08:20:20.913Z,101758.86
2022-12-01T08:22:56.544Z,101757.06
2022-12-01T08:25:29.224Z,101752.48
2022-12-01T08:28:03.091Z,101753.09
2022-12-01T08:30:35.820Z,101753.77
2022-12-01T08:33:08.499Z,101752.55
2022-12-01T08:35:41.172Z,101747.97
2022-12-01T08:38:13.948Z,101745.27
2022-12-01T08:40:44.891Z,101742.27
2022-12-01T08:43:34.812Z,101744.82
2022-12-01T08:46:10.847Z,101744.38
2022-12-01T08:48:43.502Z,101743.91
2022-12-01T08:51:18.781Z,101748.08
2022-12-01T08:53:52.464Z,101734.91
2022-12-01T08:56:27.110Z,101729.55
2022-12-01T08:59:00.069Z,101725.02
2022-12-01T09:01:33.095Z,101717.71
2022-12-01T09:04:09.501Z,101721.98
2022-12-01T09:06:44.717Z,101722.25
2022-12-01T09:09:19.809Z,101722.48
2022-12-01T09:11:53.659Z,101726.97
2022-12-01T09:14:26.526Z,101721.36
2022-12-01T09:16:59.242Z,101720.02
2022-12-01T09:19:32.029Z,101717.70
2022-12-01T09:22:05.056Z,101717.70
2022-12-01T09:24:38.039Z,101716.34
2022-12-01T09:27:13.443Z,101719.21
2022-12-01T09:29:46.149Z,101713.73
2022-12-01T09:32:18.755Z,101714.69
2022-12-01T09:34:52.345Z,101716.90
2022-12-01T09:37:24.881Z,101717.11
2022-12-01T09:39:58.380Z,101711.08
2022-12-01T09:42:35.321Z,101713.66
2022-12-01T09:45:11.347Z,101711.58
2022-12-01T09:47:46.796Z,101707.89
2022-12-01T09:50:24.241Z,101702.08
2022-12-01T09:53:01.407Z,101703.98
2022-12-01T09:55:34.636Z,101704.66
2022-12-01T09:58:07.805Z,101702.95
2022-12-01T10:00:44.672Z,101703.62
2022-12-01T10:03:26.403Z,101701.41
2022-12-01T10:09:04.650Z,101688.90
2022-12-01T10:11:41.289Z,101688.23
2022-12-01T10:14:20.037Z,101683.52
2022-12-01T10:17:01.382Z,101680.39
2022-12-01T10:19:40.165Z,101681.73
2022-12-01T10:22:43.654Z,101683.30
2022-12-01T10:25:16.982Z,101674.52
2022-12-01T10:28:01.431Z,101675.37
2022-12-01T10:30:39.371Z,101670.66
2022-12-01T10:33:18.319Z,101671.63
2022-12-01T10:35:51.001Z,101667.49
2022-12-01T10:38:27.153Z,101666.71
2022-12-01T10:41:01.092Z,101662.94
2022-12-01T10:43:39.408Z,101664.56
2022-12-01T10:46:21.712Z,101661.55
2022-12-01T10:48:59.531Z,101659.06
2022-12-01T10:51:32.391Z,101652.58
2022-12-01T10:54:08.247Z,101655.16
2022-12-01T10:56:43.806Z,101654.24
2022-12-01T10:59:26.672Z,101654.89
2022-12-01T11:02:00.163Z,101654.68
2022-12-01T11:04:45.591Z,101656.45
2022-12-01T11:07:24.345Z,101655.09
2022-12-01T11:10:14.497Z,101654.80
2022-12-01T11:12:53.870Z,101646.77
2022-12-01T11:15:28.928Z,101649.61
2022-12-01T11:18:03.727Z,101652.78
2022-12-01T11:20:39.467Z,101652.52
2022-12-01T11:23:28.440Z,101655.50
2022-12-01T11:26:06.420Z,101656.03
2022-12-01T11:28:41.658Z,101654.87
2022-12-01T11:31:15.125Z,101652.34
2022-12-01T11:33:51.527Z,101650.64
2022-12-01T11:36:29.353Z,101645.01
2022-12-01T11:39:03.389Z,101644.73
2022-12-01T11:41:41.297Z,101644.56
2022-12-01T11:47:25.398Z,101644.08
2022-12-01T11:49:59.409Z,101637.73
2022-12-01T11:52:36.785Z,101633.88
2022-12-01T11:55:26.443Z,101633.40
2022-12-01T11:58:01.460Z,101629.09
2022-12-01T12:00:47.464Z,101627.98
2022-12-01T12:03:25.224Z,101621.75
2022-12-01T12:06:39.573Z,101618.33
2022-12-01T12:09:21.684Z,101612.31
2022-12-01T12:11:58.983Z,101613.23
2022-12-01T12:14:41.914Z,101611.40
2022-12-01T12:17:27.267Z,101618.95
2022-12-01T12:20:32.323Z,101612.77
2022-12-01T12:23:20.994Z,101614.73
2022-12-01T12:26:00.956Z,101610.86
2022-12-01T12:28:52.569Z,101608.88
2022-12-01T12:31:31.145Z,101612.37
2022-12-01T12:34:31.712Z,101609.29
2022-12-01T12:37:14.240Z,101605.93
2022-12-01T12:39:58.181Z,101607.27
2022-12-01T12:42:39.745Z,101601.64
2022-12-01T12:45:21.780Z,101603.48
2022-12-01T12:48:11.399Z,101602.66
2022-12-01T12:50:49.128Z,101607.96
2022-12-01T12:53:25.353Z,101608.24
2022-12-01T12:56:02.231Z,101612.17
2022-12-01T12:58:38.423Z,101610.66
2022-12-01T13:01:15.195Z,101614.03
2022-12-01T13:03:50.967Z,101616.34
2022-12-01T13:06:29.326Z,101611.34
2022-12-01T13:09:08.195Z,101611.95
2022-12-01T13:11:45.982Z,101618.91
2022-12-01T13:14:22.419Z,101621.87
2022-12-01T13:17:00.727Z,101619.92
2022-12-01T13:19:35.415Z,101612.06
2022-12-01T13:22:08.972Z,101608.38
2022-12-01T13:24:41.406Z,101602.20
2022-12-01T13:27:20.831Z,101608.05
2022-12-01T13:29:54.901Z,101608.13
2022-12-01T13:32:34.910Z,101610.67
2022-12-01T13:35:18.721Z,101610.62
2022-12-01T13:37:52.169Z,101612.48
2022-12-01T13:40:27.025Z,101615.64
2022-12-01T13:43:06.955Z,101617.84
2022-12-01T13:45:43.041Z,101612.63
2022-12-01T13:51:13.180Z,101614.30
2022-12-01T13:53:58.686Z,101609.35
2022-12-01T13:56:41.112Z,101613.76
2022-12-01T14:00:02.621Z,101613.61
2022-12-01T14:02:36.376Z,101611.54
2022-12-01T14:05:47.251Z,101611.86
2022-12-01T14:08:24.392Z,101608.86
2022-12-01T14:10:58.499Z,101606.67
2022-12-01T14:13:32.407Z,101608.10
2022-12-01T14:16:05.965Z,101602.83
2022-12-01T14:18:40.646Z,101604.75
2022-12-01T14:21:14.866Z,101603.45
2022-12-01T14:24:05.123Z,101605.63
2022-12-01T14:26:49.243Z,101603.65
2022-12-01T14:29:33.841Z,101603.97
2022-12-01T14:32:28.687Z,101602.16
2022-12-01T14:35:13.942Z,101602.48
2022-12-01T14:37:50.742Z,101603.83
2022-12-01T14:40:29.747Z,101603.02
2022-12-01T14:43:22.443Z,101599.15
2022-12-01T14:46:03.293Z,101596.67
2022-12-01T14:48:40.789Z,101600.38
2022-12-01T14:51:29.678Z,101595.98
2022-12-01T14:54:06.740Z,101592.34
2022-12-01T14:56:39.623Z,101593.68
2022-12-01T14:59:19.476Z,101595.44
2022-12-01T15:01:54.169Z,101588.59
2022-12-01T15:04:26.518Z,101582.89
2022-12-01T15:06:59.577Z,101587.64
2022-12-01T15:09:34.157Z,101587.64
2022-12-01T15:12:22.545Z,101592.26
2022-12-01T15:14:54.816Z,101590.23
2022-12-01T15:17:32.883Z,101585.90
2022-12-01T15:20:05.894Z,101583.98
2022-12-01T15:22:38.929Z,101587.09
2022-12-01T15:25:15.681Z,101589.14
2022-12-01T15:27:47.993Z,101588.69
2022-12-01T15:30:20.928Z,101588.78
2022-12-01T15:32:53.227Z,101595.08
2022-12-01T15:35:26.263Z,101597.17
2022-12-01T15:37:58.692Z,101602.55
2022-12-01T15:43:28.407Z,101602.16
2022-12-01T15:46:03.307Z,101605.59
2022-12-01T15:48:37.232Z,101603.95
2022-12-01T15:51:13.447Z,101606.31
2022-12-01T15:53:51.421Z,101604.89
2022-12-01T15:56:29.755Z,101608.69
2022-12-01T15:59:08.297Z,101609.77
2022-12-01T16:01:41.842Z,101616.10
2022-12-01T16:04:20.887Z,101617.87
2022-12-01T16:06:59.666Z,101619.95
2022-12-01T16:09:36.800Z,101619.63
2022-12-01T16:12:23.644Z,101620.73
2022-12-01T16:15:04.435Z,101626.88
2022-12-01T16:17:46.595Z,101624.27
2022-12-01T16:20:32.473Z,101624.44
2022-12-01T16:23:06.480Z,101622.51
2022-12-01T16:25:42.331Z,101623.22
2022-12-01T16:28:37.455Z,101620.92
2022-12-01T16:35:36.973Z,101620.89
2022-12-01T16:38:29.052Z,101616.08
2022-12-01T16:41:03.511Z,101617.61
2022-12-01T16:43:36.311Z,101618.98
2022-12-01T16:46:10.811Z,101619.76
2022-12-01T16:49:07.507Z,101622.13
2022-12-01T16:52:11.152Z,101619.17
2022-12-01T16:59:32.330Z,101618.79
2022-12-01T17:06:29.167Z,101620.04
2022-12-01T17:09:01.975Z,101617.63
2022-12-01T17:11:35.412Z,101610.27
2022-12-01T17:14:09.758Z,101610.40
2022-12-01T17:59:33.031Z,101617.16
2022-12-01T18:02:02.271Z,101625.17
2022-12-01T18:04:34.369Z,101626.65
2022-12-01T18:07:03.831Z,101630.48
2022-12-01T18:09:32.933Z,101631.38
2022-12-01T18:12:02.091Z,101634.10
2022-12-01T18:14:32.348Z,101631.82
2022-12-01T18:17:02.088Z,101632.50
2022-12-01T18:19:33.260Z,101635.00
2022-12-01T18:22:03.436Z,101640.79
2022-12-01T18:24:33.075Z,101644.09
2022-12-01T18:27:02.447Z,101646.59
2022-12-01T18:29:33.374Z,101645.53
2022-12-01T18:32:04.136Z,101649.71
2022-12-01T18:34:33.503Z,101646.52
2022-12-01T18:37:05.581Z,101649.02
2022-12-01T18:39:35.107Z,101648.58
2022-12-01T18:42:05.295Z,101655.41
2022-12-01T18:44:35.501Z,101660.63
2022-12-01T18:47:05.948Z,101662.27
2022-12-01T18:49:35.654Z,101660.70
2022-12-01T18:52:05.058Z,101661.42
2022-12-01T18:54:35.273Z,101659.33
2022-12-01T18:57:04.408Z,101667.83
2022-12-01T18:59:35.406Z,101663.63
2022-12-01T19:02:05.064Z,101670.92
2022-12-01T19:04:34.228Z,101676.98
2022-12-01T19:07:03.307Z,101682.39
2022-12-01T19:09:32.604Z,101684.69
2022-12-01T19:12:01.744Z,101686.05
2022-12-01T19:14:30.925Z,101689.20
2022-12-01T19:17:00.151Z,101694.11
2022-12-01T19:19:31.916Z,101697.95
2022-12-01T19:22:05.258Z,101699.52
2022-12-01T19:24:34.289Z,101703.31
2022-12-01T19:27:03.929Z,101703.02
2022-12-01T19:29:32.947Z,101701.70
2022-12-01T19:32:02.751Z,101705.44
2022-12-01T19:34:32.128Z,101699.25
2022-12-01T19:37:01.263Z,101697.16
2022-12-01T19:39:30.271Z,101697.64
2022-12-01T19:41:59.533Z,101701.73
2022-12-01T19:44:28.755Z,101704.94
2022-12-01T19:46:58.039Z,101698.42
2022-12-01T19:49:27.340Z,101701.89
2022-12-01T19:51:56.522Z,101701.79
2022-12-01T19:54:28.083Z,101699.00
2022-12-01T19:56:57.107Z,101699.32
2022-12-01T19:59:26.091Z,101694.43
2022-12-01T20:01:55.295Z,101698.37
2022-12-01T20:04:24.401Z,101695.82
2022-12-01T20:06:54.805Z,101694.31
2022-12-01T20:09:23.690Z,101699.44
2022-12-01T20:11:54.264Z,101698.77
2022-12-01T20:14:23.520Z,101698.64
2022-12-01T20:16:55.145Z,101695.02
2022-12-01T20:19:24.190Z,101692.38
2022-12-01T20:21:53.265Z,101693.71
2022-12-01T20:24:24.487Z,101695.49
2022-12-01T20:26:56.371Z,101695.14
2022-12-01T20:29:27.365Z,101693.79
2022-12-01T20:31:58.558Z,101696.77
2022-12-01T20:34:30.169Z,101695.93
2022-12-01T20:36:59.633Z,101699.42
2022-12-01T20:39:30.861Z,101698.74
2022-12-01T20:42:00.327Z,101700.40
2022-12-01T20:44:29.381Z,101699.14
2022-12-01T20:46:58.502Z,101694.05
2022-12-01T20:49:27.890Z,101696.30
2022-12-01T20:51:57.024Z,101693.88
2022-12-01T20:54:28.417Z,101692.77
2022-12-01T20:56:59.278Z,101693.81
2022-12-01T20:59:29.279Z,101700.14
2022-12-01T21:01:58.333Z,101698.48
2022-12-01T21:04:27.463Z,101701.18
2022-12-01T21:06:57.200Z,101702.92
2022-12-01T21:09:26.601Z,101695.98
2022-12-01T21:12:16.535Z,101696.10
2022-12-01T21:14:47.567Z,101696.69
2022-12-01T21:17:29.024Z,101693.73
2022-12-01T21:20:05.033Z,101693.35
2022-12-01T21:22:34.458Z,101699.20
2022-12-01T21:25:10.163Z,101695.02
2022-12-01T21:27:39.173Z,101697.69
2022-12-01T21:30:16.780Z,101697.50
2022-12-01T21:32:46.775Z,101699.56
2022-12-01T21:35:19.017Z,101698.40
2022-12-01T21:37:48.906Z,101698.86
2022-12-01T21:40:20.241Z,101695.48
2022-12-01T21:42:49.386Z,101695.32
2022-12-01T21:45:22.339Z,101699.39
2022-12-01T21:47:51.423Z,101701.52
2022-12-01T21:50:23.347Z,101704.90
2022-12-01T21:52:52.520Z,101706.50
2022-12-01T21:55:36.866Z,101705.63
2022-12-01T21:58:21.660Z,101706.55
2022-12-01T22:00:51.004Z,101707.20
2022-12-01T22:03:31.635Z,101704.60
2022-12-01T22:08:53.654Z,101704.66
2022-12-01T22:11:23.554Z,101697.80
2022-12-01T22:14:01.430Z,101691.59
2022-12-01T22:16:31.377Z,101684.24
2022-12-01T22:19:01.700Z,101678.47
2022-12-01T22:21:36.056Z,101674.90
2022-12-01T22:24:22.801Z,101669.53
2022-12-01T22:27:07.248Z,101665.88
2022-12-01T22:29:40.230Z,101664.73
2022-12-01T22:32:36.270Z,101658.80
2022-12-01T22:35:24.223Z,101655.12
2022-12-01T22:37:54.255Z,101654.50
2022-12-01T22:40:41.207Z,101649.56
2022-12-01T22:43:25.017Z,101647.74
2022-12-01T22:46:20.348Z,101648.84
2022-12-01T22:48:51.040Z,101642.04
2022-12-01T22:51:28.637Z,101646.60
2022-12-01T22:54:06.499Z,101644.27
2022-12-01T22:56:38.481Z,101640.29
2022-12-01T22:59:20.112Z,101636.52
2022-12-01T23:01:51.352Z,101635.30
2022-12-01T23:04:26.289Z,101636.79
2022-12-01T23:07:03.759Z,101635.88
2022-12-01T23:09:41.294Z,101633.23
2022-12-01T23:12:21.811Z,101634.66
2022-12-01T23:14:53.458Z,101634.56
2022-12-01T23:17:24.426Z,101635.09
2022-12-01T23:19:58.123Z,101636.02
2022-12-01T23:22:27.458Z,101634.41
2022-12-01T23:24:56.352Z,101629.42
2022-12-01T23:27:25.309Z,101637.17
2022-12-01T23:29:54.810Z,101634.86
2022-12-01T23:32:23.751Z,101637.98
2022-12-01T23:34:56.961Z,101641.14
2022-12-01T23:37:33.245Z,101633.04
2022-12-01T23:40:02.989Z,101633.21
2022-12-01T23:42:31.932Z,101630.66
2022-12-01T23:45:00.787Z,101630.36
2022-12-01T23:47:30.313Z,101636.07
2022-12-01T23:50:02.173Z,101636.27
2022-12-01T23:52:33.803Z,101640.98
2022-12-01T23:55:03.459Z,101639.86
2022-12-01T23:57:32.337Z,101642.44
